Time;durP1;ratioP1;P1;durP2;ratioP2;P2;SDS_P1;SDS_P2;PMS_P1;PMS_P2;Temp;Humidity;BMP_temperature;BMP_pressure;BME280_temperature;BME280_humidity;BME280_pressure;Samples;Min_cycle;Max_cycle;Signal;HPM_P1;HPM_P2
2022/01/23 00:00:04;;;;;;;7.00;5.47;;;3.80;99.90;3.50;101894.00;;;;4994438;28;93231;-80
2022/01/23 00:02:33;;;;;;;12.13;6.10;;;3.50;99.90;3.50;101891.00;;;;4975073;28;92827;-81
2022/01/23 00:05:05;;;;;;;11.67;7.87;;;3.70;99.90;3.60;101891.00;;;;4976327;28;92740;-81
2022/01/23 00:07:33;;;;;;;11.80;7.17;;;3.80;99.90;3.60;101884.00;;;;4975062;28;95142;-80
2022/01/23 00:09:59;;;;;;;15.50;8.57;;;3.80;99.90;3.60;101880.00;;;;4955485;28;95313;-81
2022/01/23 00:12:27;;;;;;;11.60;7.57;;;3.80;99.90;3.60;101876.00;;;;4991131;28;92899;-78
2022/01/23 00:17:37;;;;;;;8.57;6.07;;;3.80;99.90;3.60;101877.00;;;;4984987;27;93141;-80
2022/01/23 00:20:08;;;;;;;9.27;6.87;;;3.70;99.90;3.60;101873.00;;;;4990511;27;122216;-79
2022/01/23 00:22:40;;;;;;;9.50;6.83;;;3.80;99.90;3.60;101875.00;;;;4994528;27;93892;-78
2022/01/23 00:30:40;;;;;;;12.47;6.20;;;3.80;99.90;3.60;101872.00;;;;4974980;28;92830;-79
2022/01/23 00:33:07;;;;;;;6.73;5.63;;;3.80;99.90;3.60;101882.00;;;;4974579;28;93491;-77
2022/01/23 00:35:36;;;;;;;9.83;5.17;;;3.80;99.90;3.60;101884.00;;;;4975412;28;92684;-79
2022/01/23 00:38:08;;;;;;;11.57;5.63;;;3.80;99.90;3.60;101888.00;;;;4974132;28;93342;-79
2022/01/23 00:40:36;;;;;;;7.33;5.20;;;3.70;99.90;3.60;101906.00;;;;4958149;28;95198;-79
2022/01/23 00:43:07;;;;;;;8.03;6.13;;;3.80;99.90;3.50;101912.00;;;;4975419;28;93364;-80
2022/01/23 00:45:34;;;;;;;7.53;5.17;;;3.80;99.90;3.60;101917.00;;;;4975774;28;93265;-80
2022/01/23 00:48:07;;;;;;;7.67;5.00;;;3.70;99.90;3.60;101918.00;;;;4973557;28;94237;-79
2022/01/23 00:50:44;;;;;;;12.10;5.67;;;3.70;99.90;3.60;101918.00;;;;4957780;28;95012;-80
2022/01/23 00:53:12;;;;;;;7.33;5.37;;;3.80;99.90;3.60;101913.00;;;;4974295;28;92829;-81
2022/01/23 00:55:42;;;;;;;7.60;5.50;;;3.80;99.90;3.60;101910.00;;;;4975204;28;92847;-80
2022/01/23 00:58:09;;;;;;;9.13;5.63;;;3.80;99.90;3.60;101894.00;;;;4974415;28;100357;-79
2022/01/23 01:00:35;;;;;;;10.47;5.63;;;3.80;99.90;3.60;101899.00;;;;4974494;28;93186;-79
2022/01/23 01:03:01;;;;;;;8.63;6.03;;;3.50;99.90;3.50;101900.00;;;;4974562;28;92789;-79
2022/01/23 01:05:28;;;;;;;6.73;5.13;;;3.80;99.90;3.50;101910.00;;;;4994073;28;92069;-81
2022/01/23 01:08:00;;;;;;;8.80;5.67;;;3.70;99.90;3.50;101920.00;;;;4973478;28;96337;-80
2022/01/23 01:10:35;;;;;;;9.50;6.43;;;3.70;99.90;3.60;101911.00;;;;4958156;28;94237;-81
2022/01/23 01:13:02;;;;;;;11.67;6.40;;;3.70;99.90;3.60;101919.00;;;;4984449;28;94151;-80
2022/01/23 01:15:38;;;;;;;7.87;5.33;;;3.70;99.90;3.60;101929.00;;;;4974364;28;92957;-80
2022/01/23 01:31:53;;;;;;;11.60;6.33;;;3.90;99.90;3.80;101909.00;;;;4974821;28;92702;-80
2022/01/23 01:34:45;;;;;;;9.47;6.93;;;4.00;99.90;3.90;101903.00;;;;4974026;27;92995;-82
2022/01/23 01:37:05;;;;;;;8.07;6.30;;;4.00;99.90;3.90;101898.00;;;;4976529;28;93209;-81
2022/01/23 01:39:31;;;;;;;9.67;5.97;;;4.10;99.90;3.90;101903.00;;;;4972532;28;96158;-80
2022/01/23 01:41:57;;;;;;;9.67;6.47;;;4.10;99.90;3.90;101895.00;;;;4984138;27;123721;-80
2022/01/23 01:44:23;;;;;;;7.57;6.30;;;4.10;99.90;4.00;101909.00;;;;4957364;28;93062;-80
2022/01/23 01:46:51;;;;;;;10.40;5.53;;;4.00;99.90;4.00;101899.00;;;;4958786;28;92874;-80
2022/01/23 01:49:27;;;;;;;11.60;7.43;;;4.10;99.90;4.00;101885.00;;;;4973234;28;94139;-80
2022/01/23 01:51:55;;;;;;;9.37;6.23;;;4.10;99.90;4.00;101882.00;;;;4988923;28;94667;-79
2022/01/23 01:54:23;;;;;;;13.87;6.20;;;4.20;99.90;4.10;101879.00;;;;4974237;28;92999;-79
2022/01/23 01:56:52;;;;;;;8.97;5.67;;;4.20;99.90;4.10;101870.00;;;;4974665;28;92046;-79
2022/01/23 01:59:44;;;;;;;11.70;6.13;;;4.30;99.90;4.10;101876.00;;;;4973949;28;93832;-78
2022/01/23 02:10:06;;;;;;;7.73;5.27;;;4.40;99.90;4.30;101903.00;;;;4994128;27;93337;-79
2022/01/23 02:13:02;;;;;;;6.70;4.67;;;4.50;99.90;4.30;101913.00;;;;4988308;28;94480;-76
2022/01/23 02:15:41;;;;;;;7.20;5.23;;;4.40;99.90;4.40;101927.00;;;;4978075;28;92872;-79
2022/01/23 02:18:27;;;;;;;5.83;4.73;;;4.60;99.90;4.40;101939.00;;;;4972570;28;92885;-78
2022/01/23 02:24:05;;;;;;;6.60;4.37;;;4.60;99.90;4.50;101941.00;;;;4974926;28;92166;-79
2022/01/23 02:56:52;;;;;;;7.03;4.17;;;4.90;99.90;4.70;101918.00;;;;4979220;28;92912;-77
2022/01/23 02:59:23;;;;;;;6.07;4.13;;;4.90;99.90;4.70;101911.00;;;;4972092;28;94296;-75
2022/01/23 03:04:41;;;;;;;8.20;4.43;;;4.90;99.90;4.70;101935.00;;;;4975548;28;93268;-77
2022/01/23 03:12:28;;;;;;;6.17;4.47;;;5.00;99.90;4.80;101925.00;;;;4988762;28;98230;-77
2022/01/23 03:15:04;;;;;;;7.67;3.67;;;4.90;99.90;4.80;101928.00;;;;4976938;28;96326;-77
2022/01/23 03:26:30;;;;;;;5.87;3.20;;;5.10;99.90;4.80;101936.00;;;;4989529;27;94564;-76
2022/01/23 03:28:39;;;;;;;5.00;3.33;;;5.10;99.90;4.80;101950.00;;;;4979392;28;94529;-78
2022/01/23 03:31:21;;;;;;;4.70;3.30;;;5.00;99.90;4.80;101944.00;;;;4973461;28;93133;-76
2022/01/23 03:33:47;;;;;;;4.80;3.10;;;5.00;99.90;4.90;101939.00;;;;4975498;28;92763;-74
2022/01/23 03:36:13;;;;;;;4.53;3.37;;;5.10;99.90;4.90;101936.00;;;;4972651;28;92918;-74
2022/01/23 03:38:39;;;;;;;3.07;2.33;;;5.10;99.90;4.90;101946.00;;;;4969945;28;94712;-73
2022/01/23 03:41:05;;;;;;;5.00;2.80;;;5.30;99.90;4.90;101951.00;;;;4990357;28;110521;-74
2022/01/23 03:43:34;;;;;;;4.33;3.03;;;5.10;99.90;4.90;101955.00;;;;4991085;27;92025;-74
2022/01/23 03:51:14;;;;;;;3.97;2.60;;;5.10;99.90;4.90;101951.00;;;;4977190;28;93791;-77
2022/01/23 03:53:41;;;;;;;4.27;2.93;;;5.10;99.90;4.90;101957.00;;;;4955667;28;92983;-75
2022/01/23 03:56:07;;;;;;;6.43;2.40;;;5.10;99.90;4.90;101961.00;;;;4989192;28;93422;-78
2022/01/23 03:58:34;;;;;;;2.50;2.03;;;5.10;99.90;4.90;101959.00;;;;4960872;27;94745;-76
2022/01/23 04:01:01;;;;;;;3.50;2.40;;;5.10;99.90;4.90;101967.00;;;;5011413;27;92835;-74
2022/01/23 04:03:27;;;;;;;2.40;2.03;;;5.30;99.90;4.90;101954.00;;;;4978634;27;92827;-77
2022/01/23 04:05:53;;;;;;;5.13;2.47;;;5.10;99.90;4.90;101968.00;;;;5014979;27;93754;-78
2022/01/23 04:08:20;;;;;;;3.77;2.53;;;5.00;99.90;4.90;101966.00;;;;4996396;27;92998;-77
2022/01/23 04:10:46;;;;;;;4.30;2.47;;;5.00;99.90;4.80;101959.00;;;;4975272;28;92747;-78
2022/01/23 04:15:52;;;;;;;2.93;2.03;;;5.10;99.90;4.80;101974.00;;;;4991146;27;94210;-76
2022/01/23 04:19:04;;;;;;;3.10;2.10;;;4.90;99.90;4.80;101964.00;;;;4976142;27;96012;-77
2022/01/23 04:34:51;;;;;;;2.93;2.43;;;5.00;99.90;4.70;101962.00;;;;5012337;27;92440;-75
2022/01/23 04:45:36;;;;;;;2.83;1.50;;;4.90;99.90;4.70;101980.00;;;;4991547;27;92865;-78
2022/01/23 05:01:59;;;;;;;1.93;1.47;;;4.70;99.90;4.60;101991.00;;;;4975039;28;92110;-77
2022/01/23 05:04:31;;;;;;;3.23;2.33;;;4.80;99.90;4.60;102003.00;;;;5010258;27;93099;-77
2022/01/23 05:07:00;;;;;;;3.40;2.17;;;4.80;99.90;4.60;101999.00;;;;4994871;27;92983;-77
2022/01/23 05:09:27;;;;;;;1.93;1.57;;;4.70;99.90;4.60;102003.00;;;;5010149;27;96916;-76
2022/01/23 05:11:59;;;;;;;1.63;1.50;;;4.70;99.90;4.60;102011.00;;;;4994240;27;93014;-76
2022/01/23 05:14:35;;;;;;;2.73;1.73;;;4.80;99.90;4.60;102022.00;;;;4985306;27;92902;-76
2022/01/23 05:17:03;;;;;;;2.30;1.90;;;4.80;99.90;4.60;102020.00;;;;4993550;27;92974;-77
2022/01/23 05:19:29;;;;;;;2.47;1.90;;;6.10;99.90;4.60;102022.00;;;;4965438;28;96153;-76
2022/01/23 05:22:18;;;;;;;5.50;1.57;;;4.80;99.90;4.60;102019.00;;;;4973608;28;94119;-75
2022/01/23 05:24:53;;;;;;;2.50;1.60;;;4.80;99.90;4.60;102017.00;;;;4977953;27;92749;-76
2022/01/23 05:27:22;;;;;;;3.43;2.20;;;4.80;99.90;4.60;102018.00;;;;4975857;28;92615;-77
2022/01/23 05:29:48;;;;;;;4.07;2.50;;;4.80;99.90;4.60;102021.00;;;;4973704;28;93781;-77
2022/01/23 05:32:14;;;;;;;1.43;1.33;;;4.90;99.90;4.60;102013.00;;;;4973335;28;101462;-79
2022/01/23 05:34:42;;;;;;;2.50;1.87;;;4.80;99.90;4.60;102028.00;;;;4973521;28;93903;-77
2022/01/23 05:37:07;;;;;;;2.47;1.97;;;4.80;99.90;4.60;102029.00;;;;4957020;27;92925;-77
2022/01/23 05:39:34;;;;;;;2.30;1.50;;;4.80;99.90;4.60;102034.00;;;;4939481;28;95710;-78
2022/01/23 05:42:09;;;;;;;3.33;1.80;;;4.80;99.90;4.60;102036.00;;;;4973585;28;93290;-79
2022/01/23 05:44:41;;;;;;;2.07;1.57;;;4.80;99.90;4.60;102026.00;;;;4978040;27;92755;-77
2022/01/23 05:47:11;;;;;;;2.77;1.73;;;4.80;99.90;4.60;102035.00;;;;5010573;27;92881;-77
2022/01/23 05:49:37;;;;;;;3.07;2.13;;;4.80;99.90;4.60;102034.00;;;;4993120;27;93770;-77
2022/01/23 05:52:05;;;;;;;3.57;2.17;;;4.80;99.90;4.60;102031.00;;;;4976014;28;93054;-77
2022/01/23 05:54:32;;;;;;;3.27;2.13;;;4.80;99.90;4.60;102035.00;;;;4956806;28;92967;-77
2022/01/23 05:56:57;;;;;;;2.60;1.90;;;4.80;99.90;4.60;102035.00;;;;4957194;28;92886;-76
2022/01/23 05:59:23;;;;;;;2.93;1.90;;;4.80;99.90;4.60;102030.00;;;;4976153;28;123523;-75
2022/01/23 06:01:55;;;;;;;8.23;4.13;;;4.80;99.90;4.60;102029.00;;;;4969894;28;94121;-76
2022/01/23 06:04:22;;;;;;;2.83;2.17;;;4.80;99.90;4.60;102041.00;;;;4990363;28;92861;-76
2022/01/23 06:06:49;;;;;;;3.30;2.20;;;4.80;99.90;4.60;102036.00;;;;4974951;28;93146;-76
2022/01/23 06:09:15;;;;;;;2.13;1.73;;;4.80;99.90;4.60;102037.00;;;;4973643;28;93756;-76
2022/01/23 06:11:41;;;;;;;2.10;1.90;;;4.80;99.90;4.60;102041.00;;;;4992315;28;93043;-77
2022/01/23 06:14:08;;;;;;;3.83;2.70;;;4.70;99.90;4.60;102047.00;;;;4973522;28;93080;-76
2022/01/23 06:16:36;;;;;;;3.37;2.17;;;4.80;99.90;4.60;102055.00;;;;4974272;27;92348;-76
2022/01/23 06:19:02;;;;;;;4.30;2.97;;;4.80;99.90;4.60;102054.00;;;;4983981;28;96451;-77
2022/01/23 06:21:28;;;;;;;3.30;2.40;;;4.70;99.90;4.60;102044.00;;;;4973183;28;103287;-75
2022/01/23 06:26:47;;;;;;;2.87;2.23;;;4.80;99.90;4.60;102059.00;;;;4988974;28;92793;-73
2022/01/23 06:29:16;;;;;;;2.27;2.07;;;4.80;99.90;4.60;102065.00;;;;4985497;28;112116;-74
2022/01/23 06:31:43;;;;;;;3.27;2.57;;;4.70;99.90;4.60;102056.00;;;;4956609;28;95340;-73
2022/01/23 06:34:10;;;;;;;4.73;3.30;;;4.80;99.90;4.60;102056.00;;;;4974468;28;93025;-73
2022/01/23 06:36:38;;;;;;;5.23;3.30;;;4.80;99.90;4.60;102058.00;;;;5010455;27;92781;-74
2022/01/23 06:39:07;;;;;;;4.70;2.83;;;4.70;99.90;4.60;102065.00;;;;4982732;28;93318;-74
2022/01/23 06:41:33;;;;;;;4.53;2.33;;;4.80;99.90;4.60;102061.00;;;;4937257;28;94473;-72
2022/01/23 06:43:59;;;;;;;3.80;2.90;;;4.80;99.90;4.60;102066.00;;;;4986984;28;109660;-72
2022/01/23 06:46:25;;;;;;;4.67;3.27;;;4.80;99.90;4.60;102057.00;;;;4993216;28;93020;-72
2022/01/23 06:48:51;;;;;;;4.27;2.43;;;4.80;99.90;4.60;102057.00;;;;4991712;27;94818;-72
2022/01/23 06:51:17;;;;;;;5.63;3.27;;;4.80;99.90;4.60;102063.00;;;;4956707;28;94452;-73
2022/01/23 06:53:43;;;;;;;7.03;3.63;;;5.50;99.90;4.60;102061.00;;;;4991950;27;93065;-73
2022/01/23 06:56:08;;;;;;;7.10;3.13;;;4.80;99.90;4.60;102055.00;;;;4993143;27;93710;-76
2022/01/23 06:58:34;;;;;;;5.87;3.57;;;4.80;99.90;4.70;102069.00;;;;4992161;27;121841;-73
2022/01/23 07:01:00;;;;;;;4.90;3.20;;;4.90;99.90;4.60;102068.00;;;;4991093;28;110472;-73
2022/01/23 07:03:26;;;;;;;4.70;2.97;;;4.80;99.90;4.60;102079.00;;;;4992096;28;92553;-73
2022/01/23 07:05:51;;;;;;;6.97;4.03;;;5.10;99.90;4.60;102077.00;;;;4992865;27;91948;-74
2022/01/23 07:08:18;;;;;;;4.43;2.93;;;4.80;99.90;4.70;102075.00;;;;4990538;27;122218;-72
2022/01/23 07:10:44;;;;;;;5.50;3.50;;;4.80;99.90;4.70;102089.00;;;;4988868;27;93256;-73
2022/01/23 07:13:09;;;;;;;7.97;3.97;;;4.90;99.90;4.70;102089.00;;;;5008444;27;97016;-72
2022/01/23 07:15:35;;;;;;;5.33;3.33;;;4.90;99.90;4.70;102094.00;;;;5001855;27;108404;-72
2022/01/23 07:18:01;;;;;;;4.10;3.13;;;4.90;99.90;4.70;102094.00;;;;5006813;27;122353;-74
2022/01/23 07:20:27;;;;;;;5.43;3.30;;;4.80;99.90;4.70;102093.00;;;;5007757;27;93778;-74
2022/01/23 07:22:54;;;;;;;4.47;2.80;;;4.90;99.90;4.70;102099.00;;;;5005906;27;94923;-73
2022/01/23 07:25:20;;;;;;;5.43;3.10;;;4.90;99.90;4.70;102102.00;;;;5007056;27;92911;-72
2022/01/23 07:27:50;;;;;;;4.23;2.77;;;4.80;99.90;4.70;102116.00;;;;5002008;27;100193;-75
2022/01/23 07:32:47;;;;;;;5.47;3.43;;;4.80;99.90;4.70;102115.00;;;;4988713;27;92922;-74
2022/01/23 07:35:13;;;;;;;6.03;3.47;;;4.90;99.90;4.70;102128.00;;;;5006397;27;109334;-73
2022/01/23 07:37:38;;;;;;;6.07;3.37;;;4.90;99.90;4.70;102122.00;;;;4996021;27;124894;-76
2022/01/23 07:40:05;;;;;;;7.73;3.33;;;4.80;99.90;4.70;102126.00;;;;4991450;27;111602;-75
2022/01/23 07:42:30;;;;;;;5.30;3.67;;;4.90;99.90;4.70;102137.00;;;;4992315;27;96737;-75
2022/01/23 07:44:57;;;;;;;5.83;3.80;;;4.80;99.90;4.70;102121.00;;;;5005834;27;107432;-73
2022/01/23 07:47:23;;;;;;;7.37;3.40;;;4.80;99.90;4.70;102120.00;;;;5010612;27;93156;-73
2022/01/23 07:49:50;;;;;;;6.80;4.33;;;4.90;99.90;4.70;102135.00;;;;5010701;27;93854;-72
2022/01/23 07:52:17;;;;;;;4.30;3.43;;;4.90;99.90;4.70;102129.00;;;;5008311;27;96204;-73
2022/01/23 07:54:43;;;;;;;5.30;4.17;;;4.90;99.90;4.70;102130.00;;;;5010772;27;92381;-75
2022/01/23 07:57:09;;;;;;;6.07;3.20;;;5.00;99.90;4.80;102129.00;;;;4983106;27;93406;-73
2022/01/23 07:59:35;;;;;;;6.17;3.73;;;4.90;99.90;4.80;102134.00;;;;5009517;27;122346;-76
2022/01/23 08:02:01;;;;;;;8.80;4.53;;;4.90;99.90;4.80;102126.00;;;;4989214;27;93746;-76
2022/01/23 08:04:27;;;;;;;5.27;3.60;;;5.00;99.90;4.80;102145.00;;;;4992309;27;92888;-76
2022/01/23 08:07:08;;;;;;;10.80;4.93;;;5.00;99.90;4.90;102141.00;;;;5001439;27;93779;-73
2022/01/23 08:09:34;;;;;;;5.40;3.93;;;4.90;99.90;4.80;102141.00;;;;5000272;27;93049;-73
2022/01/23 08:12:00;;;;;;;4.40;3.23;;;5.00;99.90;4.90;102145.00;;;;4990838;27;93124;-72
2022/01/23 08:14:25;;;;;;;6.43;3.63;;;4.60;99.90;4.90;102147.00;;;;5006484;27;92702;-72
2022/01/23 08:16:51;;;;;;;6.33;3.43;;;5.10;99.90;4.90;102152.00;;;;4985976;27;94115;-71
2022/01/23 08:19:17;;;;;;;5.70;3.37;;;5.10;99.90;4.90;102141.00;;;;5004660;27;123800;-71
2022/01/23 08:21:42;;;;;;;6.43;3.20;;;5.00;99.90;4.90;102131.00;;;;5009141;27;93883;-73
2022/01/23 08:24:08;;;;;;;4.77;2.80;;;5.10;99.90;5.00;102138.00;;;;4959454;27;107338;-71
2022/01/23 08:26:34;;;;;;;4.70;3.40;;;5.10;99.90;5.00;102130.00;;;;5004357;27;123185;-72
2022/01/23 08:29:01;;;;;;;5.60;3.53;;;5.20;99.90;5.00;102142.00;;;;4996330;27;123552;-72
2022/01/23 08:31:26;;;;;;;4.87;3.37;;;5.10;99.90;5.00;102143.00;;;;5001631;27;92689;-72
2022/01/23 08:33:53;;;;;;;5.37;3.70;;;5.20;99.90;5.00;102153.00;;;;5003994;27;109159;-73
2022/01/23 08:36:19;;;;;;;11.30;4.67;;;5.20;99.90;5.00;102140.00;;;;5008784;27;94640;-70
2022/01/23 08:38:45;;;;;;;8.17;4.03;;;5.10;99.90;5.00;102147.00;;;;5006025;27;122219;-74
2022/01/23 08:43:55;;;;;;;4.90;2.97;;;5.20;99.90;5.10;102142.00;;;;5003512;27;92322;-75
2022/01/23 08:46:21;;;;;;;5.10;2.97;;;5.20;99.90;5.10;102150.00;;;;5010689;27;93983;-73
2022/01/23 08:48:47;;;;;;;4.03;3.00;;;5.30;99.90;5.10;102155.00;;;;5007028;27;121735;-75
2022/01/23 08:51:13;;;;;;;6.33;2.93;;;5.30;99.90;5.20;102151.00;;;;5005284;27;93592;-72
2022/01/23 08:53:39;;;;;;;4.80;2.90;;;5.40;99.90;5.20;102155.00;;;;5006774;27;93276;-76
2022/01/23 08:56:05;;;;;;;4.30;3.30;;;5.40;99.90;5.30;102158.00;;;;5005370;27;93616;-71
2022/01/23 08:58:31;;;;;;;4.33;2.93;;;5.50;99.90;5.30;102148.00;;;;4990935;27;92725;-74
2022/01/23 09:00:57;;;;;;;5.17;3.10;;;5.40;99.90;5.30;102150.00;;;;5008659;27;109112;-73
2022/01/23 09:03:23;;;;;;;4.97;3.40;;;5.50;99.90;5.40;102153.00;;;;4991934;27;92897;-71
2022/01/23 09:05:48;;;;;;;3.33;2.70;;;5.50;99.90;5.50;102148.00;;;;5009149;27;118748;-74
2022/01/23 09:08:14;;;;;;;7.77;3.80;;;5.50;99.90;5.50;102159.00;;;;4984234;27;94443;-74
2022/01/23 09:10:42;;;;;;;4.90;3.30;;;5.60;99.90;5.60;102163.00;;;;4991143;27;92800;-74
2022/01/23 09:13:29;;;;;;;4.13;3.13;;;5.70;99.90;5.60;102175.00;;;;4990817;27;93223;-75
2022/01/23 09:15:55;;;;;;;4.17;2.60;;;5.70;99.90;5.60;102164.00;;;;5005743;27;95894;-76
2022/01/23 09:18:21;;;;;;;4.93;3.33;;;5.70;99.90;5.70;102162.00;;;;5009301;27;104486;-73
2022/01/23 09:20:47;;;;;;;6.90;3.50;;;5.80;99.90;5.60;102163.00;;;;5006935;27;104617;-73
2022/01/23 09:23:12;;;;;;;5.30;3.30;;;5.80;99.90;5.60;102165.00;;;;5003201;27;109851;-76
2022/01/23 09:25:38;;;;;;;4.07;3.10;;;5.80;99.90;5.70;102166.00;;;;5003525;27;121686;-76
2022/01/23 09:28:12;;;;;;;8.20;3.43;;;5.80;99.90;5.70;102164.00;;;;4984176;27;122551;-76
2022/01/23 09:30:40;;;;;;;11.97;3.63;;;5.80;99.90;5.60;102169.00;;;;5002336;27;92930;-74
2022/01/23 09:33:06;;;;;;;4.80;3.17;;;5.80;99.90;5.60;102183.00;;;;5010136;27;92447;-73
2022/01/23 09:35:31;;;;;;;7.87;2.97;;;5.80;99.90;5.70;102178.00;;;;5007553;27;123838;-74
2022/01/23 09:37:57;;;;;;;6.17;2.90;;;5.80;99.90;5.60;102174.00;;;;4989028;27;113173;-73
2022/01/23 09:40:24;;;;;;;6.73;3.60;;;5.80;99.90;5.60;102187.00;;;;5008121;27;94192;-75
2022/01/23 09:42:58;;;;;;;5.10;3.03;;;5.80;99.90;5.60;102191.00;;;;5008845;27;93209;-75
2022/01/23 09:45:25;;;;;;;4.03;3.03;;;5.80;99.90;5.60;102191.00;;;;4986502;27;93851;-73
2022/01/23 09:47:54;;;;;;;4.60;2.60;;;5.80;99.90;5.60;102194.00;;;;5008876;27;93181;-75
2022/01/23 09:50:20;;;;;;;4.60;3.37;;;5.70;99.90;5.60;102191.00;;;;5009819;27;92798;-78
2022/01/23 09:52:46;;;;;;;8.07;3.23;;;5.80;99.90;5.60;102193.00;;;;4984674;27;93021;-75
2022/01/23 09:55:13;;;;;;;5.13;3.63;;;5.70;99.90;5.60;102189.00;;;;4989321;27;122932;-77
2022/01/23 09:57:45;;;;;;;7.10;3.27;;;5.70;99.90;5.60;102193.00;;;;4994767;27;95447;-77
2022/01/23 10:00:25;;;;;;;5.53;3.37;;;5.80;99.90;5.60;102191.00;;;;5008530;27;92743;-77
2022/01/23 10:02:51;;;;;;;5.23;3.20;;;5.80;99.90;5.70;102182.00;;;;4972705;27;93187;-77
2022/01/23 10:05:18;;;;;;;4.47;3.33;;;5.80;99.90;5.70;102202.00;;;;4989931;27;94240;-74
2022/01/23 10:07:44;;;;;;;3.70;2.23;;;5.90;99.90;5.70;102194.00;;;;4965040;27;96012;-78
2022/01/23 10:10:21;;;;;;;5.70;2.73;;;5.80;99.90;5.70;102199.00;;;;4990795;27;93301;-74
2022/01/23 10:12:55;;;;;;;5.37;1.97;;;6.40;99.90;5.70;102204.00;;;;4990673;27;92868;-74
2022/01/23 10:15:25;;;;;;;6.63;3.20;;;5.90;99.90;5.80;102198.00;;;;5009044;27;93201;-74
2022/01/23 10:17:50;;;;;;;4.03;2.60;;;6.70;99.90;5.80;102206.00;;;;4969073;27;95757;-74
2022/01/23 10:20:18;;;;;;;4.07;2.63;;;6.00;99.90;5.90;102201.00;;;;5012112;27;97573;-73
2022/01/23 10:22:47;;;;;;;6.73;3.03;;;6.00;99.90;5.90;102201.00;;;;4986924;27;92577;-74
2022/01/23 10:25:20;;;;;;;4.43;2.83;;;6.00;99.90;6.00;102197.00;;;;5007082;27;93930;-76
2022/01/23 10:28:04;;;;;;;5.33;2.60;;;6.10;99.90;6.00;102203.00;;;;4985164;27;93423;-74
2022/01/23 10:30:41;;;;;;;5.13;2.93;;;6.20;99.90;6.10;102193.00;;;;5007216;27;93908;-76
2022/01/23 10:33:11;;;;;;;3.30;2.40;;;6.20;99.90;6.10;102193.00;;;;4999807;27;92700;-76
2022/01/23 10:36:08;;;;;;;3.13;2.17;;;6.20;99.90;6.10;102192.00;;;;4987830;27;93463;-76
2022/01/23 10:38:57;;;;;;;5.70;3.03;;;6.30;99.90;6.10;102195.00;;;;4980029;27;94567;-73
2022/01/23 10:41:42;;;;;;;3.97;2.80;;;6.30;99.90;6.10;102188.00;;;;4985314;27;93039;-73
2022/01/23 10:50:02;;;;;;;3.53;2.40;;;6.00;99.90;6.00;102179.00;;;;5000052;27;92890;-76
2022/01/23 10:52:38;;;;;;;3.67;2.57;;;6.20;99.90;6.00;102192.00;;;;4960506;27;92895;-78
2022/01/23 10:55:30;;;;;;;4.00;2.10;;;6.20;99.90;6.00;102190.00;;;;4982476;27;93032;-77
2022/01/23 10:58:01;;;;;;;3.87;1.97;;;6.20;99.90;5.90;102194.00;;;;5004393;27;113834;-78
2022/01/23 11:00:39;;;;;;;5.07;2.63;;;6.10;99.90;5.90;102212.00;;;;4988857;27;93091;-76
2022/01/23 11:03:22;;;;;;;3.30;2.63;;;6.10;99.90;6.00;102201.00;;;;4990137;27;93417;-77
2022/01/23 11:05:51;;;;;;;4.30;3.07;;;6.10;99.90;5.90;102187.00;;;;4986307;27;96518;-78
2022/01/23 11:08:32;;;;;;;3.60;2.30;;;6.10;99.90;5.90;102187.00;;;;4973188;27;95709;-80
2022/01/23 11:11:06;;;;;;;3.50;2.47;;;6.10;99.90;5.90;102185.00;;;;4983670;27;95120;-78
2022/01/23 11:19:40;;;;;;;5.77;3.33;;;5.90;99.90;5.90;102171.00;;;;4980742;27;93096;-81
2022/01/23 11:22:06;;;;;;;4.67;2.73;;;6.10;99.90;6.00;102179.00;;;;4988042;27;93446;-81
2022/01/23 11:24:47;;;;;;;5.67;3.77;;;6.10;99.90;5.90;102185.00;;;;4986993;27;93990;-78
2022/01/23 11:27:16;;;;;;;4.93;3.30;;;6.10;99.90;5.90;102187.00;;;;4994212;27;92739;-76
2022/01/23 11:30:17;;;;;;;7.80;4.20;;;6.10;99.90;5.90;102194.00;;;;5012047;27;93571;-76
2022/01/23 11:32:43;;;;;;;5.60;3.57;;;6.10;99.90;5.90;102193.00;;;;4982564;28;92996;-79
2022/01/23 11:35:14;;;;;;;5.20;3.33;;;6.10;99.90;5.90;102187.00;;;;4990642;27;92954;-74
2022/01/23 11:37:52;;;;;;;8.13;4.30;;;6.10;99.90;6.00;102183.00;;;;5001945;27;92741;-74
2022/01/23 11:50:33;;;;;;;4.63;3.40;;;7.30;99.90;6.00;102188.00;;;;4976578;27;96841;-76
2022/01/23 11:54:49;;;;;;;5.63;3.83;;;7.80;99.90;6.20;102173.00;;;;5000212;27;93477;-75
2022/01/23 11:57:33;;;;;;;4.37;3.97;;;6.30;99.90;6.10;102170.00;;;;4975484;27;92615;-75
2022/01/23 12:00:05;;;;;;;5.40;3.23;;;6.30;99.90;6.10;102168.00;;;;4991974;27;92994;-73
2022/01/23 12:02:42;;;;;;;6.77;3.67;;;6.30;99.90;6.10;102165.00;;;;4983651;27;93533;-73
2022/01/23 12:05:15;;;;;;;4.47;3.57;;;6.30;99.90;6.00;102169.00;;;;4993524;27;93248;-77
2022/01/23 12:07:43;;;;;;;6.07;4.10;;;6.20;99.90;6.00;102169.00;;;;4987113;27;93381;-75
2022/01/23 12:10:17;;;;;;;4.40;3.40;;;6.20;99.90;6.00;102175.00;;;;4992977;27;92294;-76
2022/01/23 12:12:49;;;;;;;5.87;3.40;;;6.20;99.90;6.00;102176.00;;;;4990898;27;95693;-77
2022/01/23 12:18:29;;;;;;;3.97;2.87;;;6.10;99.90;5.90;102178.00;;;;4994321;27;94070;-75
2022/01/23 12:20:55;;;;;;;4.00;2.53;;;6.10;99.90;5.90;102175.00;;;;5010247;27;92850;-76
2022/01/23 12:23:21;;;;;;;5.90;3.27;;;6.10;99.90;6.00;102169.00;;;;4974331;27;94529;-76
2022/01/23 12:25:55;;;;;;;6.43;2.80;;;6.10;99.90;6.00;102163.00;;;;4991757;27;93357;-75
2022/01/23 12:28:43;;;;;;;4.07;3.03;;;6.10;99.90;6.10;102163.00;;;;4972895;27;93085;-73
2022/01/23 12:31:14;;;;;;;4.60;2.23;;;6.20;99.90;6.30;102149.00;;;;4991710;27;92843;-73
2022/01/23 12:33:40;;;;;;;3.63;2.60;;;6.30;99.90;6.40;102160.00;;;;5009993;27;106774;-76
2022/01/23 12:36:15;;;;;;;3.70;2.37;;;6.50;99.90;6.50;102150.00;;;;4986553;28;105086;-74
2022/01/23 12:38:56;;;;;;;6.70;2.87;;;6.60;99.90;6.50;102148.00;;;;5010891;27;93064;-74
2022/01/23 12:41:30;;;;;;;2.60;2.13;;;6.60;99.90;6.50;102153.00;;;;4991975;27;92869;-74
2022/01/23 12:44:08;;;;;;;2.77;2.47;;;6.70;99.90;6.50;102153.00;;;;5003725;27;93927;-72
2022/01/23 12:46:39;;;;;;;4.03;2.63;;;6.60;99.90;6.50;102161.00;;;;5010330;27;93708;-74
2022/01/23 12:49:33;;;;;;;5.53;2.43;;;6.60;99.90;6.50;102153.00;;;;4991142;27;92932;-74
2022/01/23 12:52:09;;;;;;;2.47;1.37;;;6.60;99.90;6.50;102159.00;;;;4975053;27;92949;-74
2022/01/23 12:54:59;;;;;;;3.23;2.77;;;6.60;99.90;6.50;102155.00;;;;4991629;27;95356;-71
2022/01/23 12:57:34;;;;;;;4.57;2.80;;;6.70;99.90;6.50;102155.00;;;;4984440;27;93280;-72
2022/01/23 13:00:12;;;;;;;4.33;2.97;;;6.70;99.90;6.50;102150.00;;;;5010858;27;92796;-73
2022/01/23 13:02:50;;;;;;;3.60;1.87;;;6.90;99.90;6.40;102167.00;;;;5003561;27;92108;-72
2022/01/23 13:05:17;;;;;;;6.03;2.73;;;6.60;99.90;6.50;102165.00;;;;5010442;27;93470;-73
2022/01/23 13:08:01;;;;;;;4.23;2.90;;;6.60;99.90;6.50;102159.00;;;;5009157;27;93599;-72
2022/01/23 13:10:53;;;;;;;2.60;2.17;;;6.60;99.90;6.50;102167.00;;;;5002709;27;94755;-73
2022/01/23 13:13:33;;;;;;;4.67;2.77;;;6.60;99.90;6.50;102157.00;;;;5009826;27;92872;-71
2022/01/23 13:18:50;;;;;;;2.87;2.47;;;6.60;99.90;6.40;102168.00;;;;4987238;27;92854;-70
2022/01/23 13:29:59;;;;;;;5.33;3.10;;;6.50;99.90;6.40;102168.00;;;;4993883;27;92504;-71
2022/01/23 13:35:08;;;;;;;5.30;3.40;;;6.60;99.90;6.40;102159.00;;;;4986512;27;93296;-70
2022/01/23 13:37:40;;;;;;;5.40;3.13;;;6.60;99.90;6.40;102162.00;;;;5004805;27;95231;-71
2022/01/23 13:40:22;;;;;;;5.17;2.60;;;6.50;99.90;6.40;102164.00;;;;5008328;27;93957;-70
2022/01/23 13:47:57;;;;;;;4.97;2.97;;;6.50;99.90;6.40;102159.00;;;;5008318;27;92963;-70
2022/01/23 13:59:57;;;;;;;3.10;1.87;;;6.60;99.90;6.50;102163.00;;;;4998299;27;92900;-70
2022/01/23 14:02:35;;;;;;;3.97;1.87;;;6.60;99.90;6.50;102160.00;;;;4989675;27;94225;-71
2022/01/23 14:05:13;;;;;;;3.13;1.60;;;6.70;99.90;6.50;102158.00;;;;4983172;27;94716;-71
2022/01/23 14:07:49;;;;;;;2.43;2.10;;;6.70;99.90;6.50;102165.00;;;;5003047;27;93306;-71
2022/01/23 14:10:39;;;;;;;2.47;1.60;;;6.60;99.90;6.50;102158.00;;;;5002679;27;109134;-70
2022/01/23 14:13:14;;;;;;;2.13;1.90;;;6.40;99.90;6.50;102164.00;;;;4990358;27;92943;-71
2022/01/23 14:15:52;;;;;;;3.13;2.03;;;6.70;99.90;6.50;102174.00;;;;4990290;27;93082;-71
2022/01/23 14:18:24;;;;;;;3.50;2.13;;;6.70;99.90;6.50;102168.00;;;;5008143;27;96770;-70
2022/01/23 14:21:06;;;;;;;4.57;2.20;;;6.70;99.90;6.50;102166.00;;;;4989257;27;93307;-70